createdAt,value
2017-12-01T00:00:34.862Z,4.40
2017-12-01T00:03:01.777Z,4.30
2017-12-01T00:05:27.833Z,4.30
2017-12-01T00:07:53.888Z,4.40
2017-12-01T00:10:19.943Z,4.60
2017-12-01T00:12:45.997Z,4.70
2017-12-01T00:15:12.806Z,4.80
2017-12-01T00:17:38.832Z,4.70
2017-12-01T00:20:04.856Z,4.70
2017-12-01T00:22:30.914Z,4.70
2017-12-01T00:24:57.698Z,4.50
2017-12-01T00:27:23.734Z,4.50
2017-12-01T00:29:49.786Z,4.60
2017-12-01T00:32:16.580Z,4.70
2017-12-01T00:34:42.625Z,4.70
2017-12-01T00:37:08.681Z,4.80
2017-12-01T00:39:35.479Z,4.60
2017-12-01T00:42:01.636Z,4.60
2017-12-01T00:44:27.697Z,4.70
2017-12-01T00:46:53.755Z,4.90
2017-12-01T00:49:19.814Z,5.00
2017-12-01T00:51:45.977Z,4.80
2017-12-01T00:54:12.046Z,4.90
2017-12-01T00:56:38.117Z,4.90
2017-12-01T00:59:04.181Z,4.80
2017-12-01T01:01:30.234Z,4.80
2017-12-01T01:03:57.026Z,4.80
2017-12-01T01:06:23.086Z,4.80
2017-12-01T01:08:49.942Z,4.80
2017-12-01T01:11:16.004Z,4.80
2017-12-01T01:13:42.057Z,4.80
2017-12-01T01:16:08.091Z,4.80
2017-12-01T01:18:34.915Z,4.30
2017-12-01T01:21:00.968Z,4.20
2017-12-01T01:23:27.761Z,4.40
2017-12-01T01:25:53.808Z,4.50
2017-12-01T01:28:19.960Z,4.50
2017-12-01T01:30:46.744Z,4.50
2017-12-01T01:33:12.793Z,4.50
2017-12-01T01:35:38.873Z,4.00
2017-12-01T01:38:04.976Z,3.30
2017-12-01T01:40:31.053Z,3.60
2017-12-01T01:42:57.103Z,3.50
2017-12-01T01:45:23.921Z,4.00
2017-12-01T01:47:49.994Z,4.00
2017-12-01T01:50:16.039Z,3.90
2017-12-01T01:52:42.102Z,4.00
2017-12-01T01:55:08.167Z,4.20
2017-12-01T01:57:34.230Z,4.40
2017-12-01T02:00:00.283Z,4.50
2017-12-01T02:02:27.116Z,4.70
2017-12-01T02:04:53.935Z,4.60
2017-12-01T02:07:19.981Z,4.60
2017-12-01T02:09:46.783Z,4.50
2017-12-01T02:12:12.868Z,4.50
2017-12-01T02:14:38.918Z,4.70
2017-12-01T02:17:04.942Z,4.80
2017-12-01T02:19:30.979Z,4.50
2017-12-01T02:21:57.203Z,4.40
2017-12-01T02:24:23.429Z,5.20
2017-12-01T02:26:49.680Z,4.70
2017-12-01T02:29:15.967Z,4.20
2017-12-01T02:31:42.194Z,4.20
2017-12-01T02:34:08.423Z,4.70
2017-12-01T02:36:34.668Z,4.30
2017-12-01T02:39:00.938Z,4.20
2017-12-01T02:41:27.149Z,4.30
2017-12-01T02:43:54.268Z,4.30
2017-12-01T02:46:20.591Z,4.20
2017-12-01T02:48:47.577Z,4.50
2017-12-01T02:51:13.802Z,3.70
2017-12-01T02:53:40.795Z,4.00
2017-12-01T02:56:07.047Z,4.00
2017-12-01T02:58:33.318Z,4.20
2017-12-01T03:01:00.306Z,3.70
2017-12-01T03:03:27.242Z,3.40
2017-12-01T03:05:54.277Z,3.40
2017-12-01T03:08:21.241Z,3.50
2017-12-01T03:10:47.454Z,3.40
2017-12-01T03:13:13.754Z,3.70
2017-12-01T03:15:40.762Z,4.20
2017-12-01T03:18:07.087Z,3.50
2017-12-01T03:20:33.352Z,4.20
2017-12-01T03:22:59.585Z,4.10
2017-12-01T03:25:26.615Z,4.10
2017-12-01T03:27:52.870Z,4.00
2017-12-01T03:30:19.136Z,4.20
2017-12-01T03:32:45.497Z,4.40
2017-12-01T03:35:11.755Z,4.60
2017-12-01T03:37:38.745Z,4.60
2017-12-01T03:40:04.979Z,4.60
2017-12-01T03:42:31.221Z,4.60
2017-12-01T03:44:57.474Z,4.60
2017-12-01T03:47:23.714Z,4.70
2017-12-01T03:49:49.973Z,4.60
2017-12-01T03:52:16.202Z,4.70
2017-12-01T03:54:42.475Z,4.60
2017-12-01T03:57:08.744Z,4.50
2017-12-01T03:59:35.010Z,4.30
2017-12-01T04:02:01.279Z,4.90
2017-12-01T04:04:27.540Z,4.40
2017-12-01T04:06:53.822Z,4.50
2017-12-01T04:09:20.869Z,4.50
2017-12-01T04:11:47.854Z,4.60
2017-12-01T04:14:14.105Z,4.60
2017-12-01T04:16:40.330Z,4.50
2017-12-01T04:19:07.297Z,4.40
2017-12-01T04:21:34.279Z,4.40
2017-12-01T04:24:00.512Z,4.40
2017-12-01T04:26:26.745Z,4.00
2017-12-01T04:28:53.005Z,3.60
2017-12-01T04:31:19.274Z,3.60
2017-12-01T04:33:46.249Z,4.10
2017-12-01T04:36:12.497Z,4.10
2017-12-01T04:38:38.732Z,4.20
2017-12-01T04:41:04.978Z,4.10
2017-12-01T04:43:31.965Z,4.10
2017-12-01T04:45:58.234Z,4.00
2017-12-01T04:48:24.481Z,3.90
2017-12-01T04:50:51.581Z,4.30
2017-12-01T04:53:17.841Z,4.30
2017-12-01T04:55:44.850Z,4.60
2017-12-01T04:58:11.119Z,4.60
2017-12-01T05:00:37.414Z,4.60
2017-12-01T05:03:03.649Z,4.60
2017-12-01T05:05:29.901Z,4.20
2017-12-01T05:07:56.138Z,4.10
2017-12-01T05:10:22.395Z,4.10
2017-12-01T05:12:48.674Z,4.30
2017-12-01T05:15:14.971Z,4.20
2017-12-01T05:17:41.197Z,4.30
2017-12-01T05:20:07.430Z,4.30
2017-12-01T05:22:33.724Z,4.90
2017-12-01T05:24:59.986Z,4.20
2017-12-01T05:27:26.197Z,4.10
2017-12-01T05:29:52.436Z,4.20
2017-12-01T05:32:19.379Z,4.10
2017-12-01T05:34:45.637Z,3.70
2017-12-01T05:37:11.837Z,4.20
2017-12-01T05:39:38.059Z,4.40
2017-12-01T05:42:04.286Z,4.80
2017-12-01T05:44:30.565Z,3.90
2017-12-01T05:46:56.800Z,4.20
2017-12-01T05:49:23.054Z,4.20
2017-12-01T05:51:49.325Z,4.10
2017-12-01T05:54:15.828Z,4.10
2017-12-01T05:56:42.072Z,4.00
2017-12-01T05:59:08.335Z,3.80
2017-12-01T06:01:35.335Z,3.80
2017-12-01T06:04:01.569Z,3.80
2017-12-01T06:06:27.813Z,3.90
2017-12-01T06:08:54.107Z,3.40
2017-12-01T06:11:20.360Z,3.40
2017-12-01T06:13:46.611Z,3.40
2017-12-01T06:16:12.852Z,3.30
2017-12-01T06:18:39.841Z,3.20
2017-12-01T06:21:06.075Z,3.10
2017-12-01T06:23:32.312Z,3.70
2017-12-01T06:25:58.557Z,3.10
2017-12-01T06:28:24.987Z,3.30
2017-12-01T06:30:55.513Z,3.10
2017-12-01T06:33:21.746Z,3.10
2017-12-01T06:35:47.955Z,3.10
2017-12-01T06:38:14.229Z,3.50
2017-12-01T06:40:41.425Z,3.30
2017-12-01T06:43:07.666Z,3.20
2017-12-01T06:45:33.906Z,4.00
2017-12-01T06:48:00.903Z,3.40
2017-12-01T06:50:27.154Z,3.40
2017-12-01T06:52:53.403Z,3.90
2017-12-01T06:55:19.750Z,3.50
2017-12-01T06:57:45.984Z,3.50
2017-12-01T07:00:12.970Z,3.60
2017-12-01T07:02:39.242Z,3.60
2017-12-01T07:05:06.235Z,3.60
2017-12-01T07:07:32.467Z,3.60
2017-12-01T07:09:58.753Z,3.20
2017-12-01T07:12:25.734Z,3.40
2017-12-01T07:14:51.971Z,3.30
2017-12-01T07:17:18.987Z,3.00
2017-12-01T07:19:45.360Z,3.00
2017-12-01T07:22:12.414Z,3.30
2017-12-01T07:24:38.676Z,3.30
2017-12-01T07:27:07.709Z,3.40
2017-12-01T07:29:34.002Z,3.20
2017-12-01T07:32:00.252Z,3.00
2017-12-01T07:34:26.486Z,3.10
2017-12-01T07:36:52.729Z,3.10
2017-12-01T07:39:18.975Z,3.30
2017-12-01T07:41:45.255Z,3.50
2017-12-01T07:44:13.194Z,2.90
2017-12-01T07:46:39.450Z,2.90
2017-12-01T07:49:06.498Z,2.90
2017-12-01T07:51:32.809Z,2.80
2017-12-01T07:53:59.036Z,2.90
2017-12-01T07:56:26.071Z,2.70
2017-12-01T07:58:52.441Z,2.70
2017-12-01T08:01:18.703Z,2.70
2017-12-01T08:03:45.074Z,2.60
2017-12-01T08:06:11.382Z,2.60
2017-12-01T08:08:38.397Z,2.60
2017-12-01T08:11:04.792Z,2.60
2017-12-01T08:13:31.139Z,2.50
2017-12-01T08:16:09.747Z,3.00
2017-12-01T08:18:48.181Z,2.60
2017-12-01T08:21:14.429Z,2.70
2017-12-01T08:23:53.974Z,2.60
2017-12-01T08:26:21.037Z,2.70
2017-12-01T08:28:47.325Z,2.60
2017-12-01T08:31:13.572Z,2.80
2017-12-01T08:33:39.806Z,3.20
2017-12-01T08:36:06.781Z,2.90
2017-12-01T08:38:33.865Z,3.00
2017-12-01T08:41:00.078Z,2.90
2017-12-01T08:43:26.330Z,3.10
2017-12-01T08:45:52.570Z,3.00
2017-12-01T08:48:19.551Z,3.10
2017-12-01T08:50:45.793Z,3.20
2017-12-01T08:53:12.041Z,3.20
2017-12-01T08:55:38.312Z,3.20
2017-12-01T08:58:05.284Z,3.10
2017-12-01T09:00:32.233Z,3.20
2017-12-01T09:02:59.214Z,3.40
2017-12-01T09:05:25.459Z,3.40
2017-12-01T09:07:51.689Z,3.20
2017-12-01T09:10:18.007Z,3.20
2017-12-01T09:12:44.264Z,3.30
2017-12-01T09:15:11.288Z,3.30
2017-12-01T09:17:37.514Z,3.30
2017-12-01T09:20:03.793Z,3.30
2017-12-01T09:22:30.757Z,3.30
2017-12-01T09:24:57.734Z,3.20
2017-12-01T09:27:24.124Z,3.20
2017-12-01T09:29:50.405Z,3.30
2017-12-01T09:32:16.644Z,3.40
2017-12-01T09:34:43.639Z,3.40
2017-12-01T09:37:09.887Z,3.40
2017-12-01T09:39:36.166Z,3.40
2017-12-01T09:42:02.442Z,3.40
2017-12-01T09:44:28.753Z,3.40
2017-12-01T09:46:55.820Z,3.40
2017-12-01T09:49:22.062Z,3.40
2017-12-01T09:51:48.344Z,3.30
2017-12-01T09:54:14.637Z,3.40
2017-12-01T09:56:40.916Z,3.40
2017-12-01T09:59:07.157Z,3.40
2017-12-01T10:01:33.392Z,3.50
2017-12-01T10:03:59.657Z,3.50
2017-12-01T10:06:25.931Z,3.40
2017-12-01T10:08:52.194Z,3.40
2017-12-01T10:11:18.406Z,3.20
2017-12-01T10:13:44.632Z,2.00
2017-12-01T10:16:10.872Z,3.30
2017-12-01T10:18:37.130Z,2.60
2017-12-01T10:21:04.147Z,2.60
2017-12-01T10:23:31.146Z,2.60
2017-12-01T10:25:57.391Z,2.50
2017-12-01T10:28:23.646Z,2.60
2017-12-01T10:30:50.626Z,2.70
2017-12-01T10:33:16.869Z,2.70
2017-12-01T10:35:43.214Z,2.80
2017-12-01T10:38:09.491Z,2.80
2017-12-01T10:40:36.433Z,2.90
2017-12-01T10:43:03.421Z,2.90
2017-12-01T10:45:29.663Z,2.90
2017-12-01T10:47:55.899Z,3.10
2017-12-01T10:50:22.134Z,3.10
2017-12-01T10:52:49.122Z,3.20
2017-12-01T10:55:16.085Z,3.20
2017-12-01T10:57:42.339Z,3.80
2017-12-01T11:00:08.609Z,3.20
2017-12-01T11:02:34.864Z,3.30
2017-12-01T11:05:01.466Z,3.30
2017-12-01T11:07:27.725Z,3.30
2017-12-01T11:09:53.984Z,3.20
2017-12-01T11:12:20.232Z,2.80
2017-12-01T11:14:47.222Z,3.50
2017-12-01T11:17:13.481Z,3.50
2017-12-01T11:19:39.686Z,3.50
2017-12-01T11:22:05.905Z,3.50
2017-12-01T11:24:32.135Z,3.60
2017-12-01T11:26:58.365Z,3.60
2017-12-01T11:29:24.641Z,3.70
2017-12-01T11:31:50.976Z,3.70
2017-12-01T11:34:17.973Z,3.30
2017-12-01T11:36:44.239Z,3.00
2017-12-01T11:39:10.523Z,3.10
2017-12-01T11:41:36.802Z,3.50
2017-12-01T11:44:03.318Z,3.40
2017-12-01T11:46:29.686Z,3.40
2017-12-01T11:48:57.537Z,3.70
2017-12-01T11:51:23.823Z,3.70
2017-12-01T11:53:50.124Z,3.80
2017-12-01T11:56:17.077Z,4.00
2017-12-01T11:58:43.354Z,4.00
2017-12-01T12:01:10.384Z,4.00
2017-12-01T12:03:36.622Z,4.00
2017-12-01T12:06:03.609Z,3.60
2017-12-01T12:08:29.842Z,3.50
2017-12-01T12:10:56.073Z,3.40
2017-12-01T12:13:22.301Z,3.40
2017-12-01T12:15:48.578Z,3.50
2017-12-01T12:18:14.846Z,3.50
2017-12-01T12:20:41.813Z,3.60
2017-12-01T12:23:08.037Z,3.60
2017-12-01T12:25:34.278Z,3.40
2017-12-01T12:28:00.588Z,3.50
2017-12-01T12:30:26.817Z,3.30
2017-12-01T12:32:53.062Z,3.40
2017-12-01T12:35:19.301Z,3.60
2017-12-01T12:37:45.533Z,3.40
2017-12-01T12:40:12.528Z,3.40
2017-12-01T12:42:38.750Z,3.90
2017-12-01T12:45:04.993Z,3.40
2017-12-01T12:47:31.206Z,3.50
2017-12-01T12:49:57.457Z,3.60
2017-12-01T12:52:23.704Z,3.40
2017-12-01T12:54:49.959Z,3.50
2017-12-01T12:57:16.932Z,3.90
2017-12-01T12:59:43.261Z,3.90
2017-12-01T13:02:09.498Z,4.00
2017-12-01T13:04:35.770Z,3.90
2017-12-01T13:07:02.113Z,4.00
2017-12-01T13:09:29.101Z,4.10
2017-12-01T13:11:55.344Z,4.10
2017-12-01T13:14:21.612Z,4.20
2017-12-01T13:16:47.839Z,4.30
2017-12-01T13:19:14.150Z,4.20
2017-12-01T13:21:40.381Z,4.80
2017-12-01T13:24:06.658Z,4.50
2017-12-01T13:26:32.916Z,4.30
2017-12-01T13:28:59.313Z,4.30
2017-12-01T13:31:25.908Z,4.30
2017-12-01T13:33:53.393Z,4.20
2017-12-01T13:36:20.958Z,4.10
2017-12-01T13:38:47.661Z,4.10
2017-12-01T13:41:14.401Z,4.20
2017-12-01T13:43:42.169Z,4.10
2017-12-01T13:46:09.231Z,4.10
2017-12-01T13:48:35.989Z,4.10
2017-12-01T13:51:03.570Z,4.40
2017-12-01T13:53:31.344Z,5.00
2017-12-01T13:55:58.182Z,4.60
2017-12-01T13:58:26.405Z,4.20
2017-12-01T14:00:53.385Z,4.40
2017-12-01T14:03:19.731Z,4.30
2017-12-01T14:05:45.996Z,4.20
2017-12-01T14:08:12.258Z,4.20
2017-12-01T14:10:38.523Z,4.40
2017-12-01T14:13:04.754Z,4.40
2017-12-01T14:15:37.547Z,4.60
2017-12-01T14:18:04.381Z,4.60
2017-12-01T14:20:33.504Z,4.70
2017-12-01T14:22:59.809Z,5.00
2017-12-01T14:25:26.061Z,5.60
2017-12-01T14:27:53.049Z,4.70
2017-12-01T14:30:19.306Z,3.90
2017-12-01T14:32:45.572Z,4.70
2017-12-01T14:35:12.537Z,4.90
2017-12-01T14:37:38.781Z,4.90
2017-12-01T14:40:05.034Z,4.90
2017-12-01T14:42:31.277Z,4.80
2017-12-01T14:44:57.635Z,4.70
2017-12-01T14:47:24.009Z,4.60
2017-12-01T14:49:50.261Z,4.50
2017-12-01T14:52:16.586Z,3.80
2017-12-01T14:54:43.602Z,4.70
2017-12-01T14:57:10.604Z,4.40
2017-12-01T14:59:36.885Z,4.40
2017-12-01T15:02:03.154Z,4.50
2017-12-01T15:04:29.498Z,4.70
2017-12-01T15:06:55.773Z,4.90
2017-12-01T15:09:22.157Z,5.00
2017-12-01T15:11:48.467Z,4.80
2017-12-01T15:14:14.728Z,4.50
2017-12-01T15:16:40.987Z,4.70
2017-12-01T15:19:07.233Z,4.80
2017-12-01T15:21:33.522Z,5.10
2017-12-01T15:23:59.800Z,5.00
2017-12-01T15:26:26.793Z,5.00
2017-12-01T15:28:53.042Z,5.00
2017-12-01T15:31:19.283Z,3.90
2017-12-01T15:33:45.541Z,4.40
2017-12-01T15:36:12.566Z,4.50
2017-12-01T15:38:39.624Z,4.70
2017-12-01T15:41:05.879Z,4.70
2017-12-01T15:43:32.142Z,4.40
2017-12-01T15:45:58.486Z,4.40
2017-12-01T15:48:24.811Z,4.60
2017-12-01T15:50:51.145Z,4.50
2017-12-01T15:53:17.437Z,4.20
2017-12-01T15:55:43.689Z,4.00
2017-12-01T15:58:09.974Z,4.30
2017-12-01T16:00:36.249Z,4.10
2017-12-01T16:03:02.538Z,3.90
2017-12-01T16:05:28.607Z,3.90
2017-12-01T16:07:54.741Z,4.00
2017-12-01T16:10:21.603Z,4.50
2017-12-01T16:12:47.750Z,4.50
2017-12-01T16:15:13.809Z,4.50
2017-12-01T16:17:39.889Z,4.10
2017-12-01T16:20:05.951Z,4.10
2017-12-01T16:22:31.986Z,4.10
2017-12-01T16:24:58.026Z,4.00
2017-12-01T16:27:24.841Z,3.90
2017-12-01T16:29:50.890Z,3.90
2017-12-01T16:32:17.019Z,4.00
2017-12-01T16:34:43.819Z,3.90
2017-12-01T16:37:09.922Z,3.90
2017-12-01T16:39:35.979Z,3.80
2017-12-01T16:42:02.102Z,3.70
2017-12-01T16:44:28.203Z,3.70
2017-12-01T16:46:54.371Z,3.60
2017-12-01T16:49:21.260Z,3.70
2017-12-01T16:51:47.341Z,3.70
2017-12-01T16:54:14.152Z,3.70
2017-12-01T16:56:40.210Z,3.60
2017-12-01T16:59:07.033Z,3.60
2017-12-01T17:01:33.158Z,3.60
2017-12-01T17:03:59.960Z,3.80
2017-12-01T17:06:26.097Z,3.80
2017-12-01T17:08:52.169Z,4.00
2017-12-01T17:11:18.241Z,4.00
2017-12-01T17:13:44.449Z,3.90
2017-12-01T17:16:10.623Z,3.80
2017-12-01T17:18:37.486Z,3.60
2017-12-01T17:21:03.661Z,3.60
2017-12-01T17:23:29.821Z,3.50
2017-12-01T17:25:56.623Z,3.60
2017-12-01T17:28:22.700Z,3.60
2017-12-01T17:30:48.825Z,3.60
2017-12-01T17:33:15.596Z,3.30
2017-12-01T17:35:42.404Z,3.30
2017-12-01T17:38:08.466Z,2.60
2017-12-01T17:40:35.258Z,3.30
2017-12-01T17:43:02.102Z,3.40
2017-12-01T17:45:28.905Z,3.30
2017-12-01T17:47:55.002Z,3.90
2017-12-01T17:50:21.062Z,3.30
2017-12-01T17:52:47.129Z,3.30
2017-12-01T17:55:13.192Z,4.00
2017-12-01T17:57:39.252Z,3.40
2017-12-01T18:00:06.046Z,3.30
2017-12-01T18:02:32.127Z,3.30
2017-12-01T18:04:58.977Z,3.30
2017-12-01T18:07:25.066Z,3.60
2017-12-01T18:09:51.871Z,3.50
2017-12-01T18:12:17.997Z,3.50
2017-12-01T18:14:44.052Z,3.40
2017-12-01T18:17:10.098Z,4.20
2017-12-01T18:19:36.214Z,3.60
2017-12-01T18:22:02.219Z,3.70
2017-12-01T18:24:28.345Z,3.90
2017-12-01T18:26:54.434Z,3.80
2017-12-01T18:29:20.538Z,3.20
2017-12-01T18:31:46.575Z,3.60
2017-12-01T18:34:12.702Z,3.50
2017-12-01T18:36:38.733Z,3.80
2017-12-01T18:39:04.782Z,3.50
2017-12-01T18:41:30.837Z,3.50
2017-12-01T18:43:56.897Z,3.70
2017-12-01T18:46:22.953Z,3.90
2017-12-01T18:48:50.049Z,4.60
2017-12-01T18:51:16.169Z,4.00
2017-12-01T18:53:42.969Z,4.00
2017-12-01T18:56:09.021Z,4.00
2017-12-01T18:58:35.083Z,4.20
2017-12-01T19:01:01.142Z,4.20
2017-12-01T19:03:27.954Z,4.20
2017-12-01T19:05:53.998Z,4.20
2017-12-01T19:08:20.033Z,4.30
2017-12-01T19:10:46.859Z,4.20
2017-12-01T19:13:12.901Z,3.90
2017-12-01T19:15:39.714Z,4.30
2017-12-01T19:18:05.835Z,4.20
2017-12-01T19:20:31.949Z,4.20
2017-12-01T19:22:57.966Z,4.10
2017-12-01T19:25:24.753Z,4.00
2017-12-01T19:27:51.573Z,3.80
2017-12-01T19:30:18.386Z,3.80
2017-12-01T19:32:44.475Z,3.90
2017-12-01T19:35:10.558Z,3.80
2017-12-01T19:37:36.712Z,3.90
2017-12-01T19:40:02.815Z,3.90
2017-12-01T19:42:28.919Z,3.80
2017-12-01T19:44:54.984Z,3.80
2017-12-01T19:47:21.798Z,3.90
2017-12-01T19:49:47.862Z,3.90
2017-12-01T19:52:15.039Z,3.80
2017-12-01T19:54:41.870Z,3.60
2017-12-01T19:57:07.960Z,3.60
2017-12-01T19:59:34.746Z,3.50
2017-12-01T20:02:00.769Z,3.50
2017-12-01T20:04:26.807Z,3.50
2017-12-01T20:06:52.854Z,3.50
2017-12-01T20:09:19.651Z,3.40
2017-12-01T20:11:45.759Z,3.40
2017-12-01T20:14:12.710Z,3.30
2017-12-01T20:16:38.757Z,3.30
2017-12-01T20:19:04.917Z,3.20
2017-12-01T20:21:31.026Z,3.20
2017-12-01T20:23:57.209Z,3.10
2017-12-01T20:26:24.037Z,3.00
2017-12-01T20:28:50.087Z,2.70
2017-12-01T20:31:16.900Z,3.20
2017-12-01T20:33:42.987Z,3.40
2017-12-01T20:36:09.098Z,3.30
2017-12-01T20:38:35.907Z,3.30
2017-12-01T20:41:02.795Z,3.30
2017-12-01T20:43:29.631Z,3.30
2017-12-01T20:45:55.697Z,3.30
2017-12-01T20:48:21.845Z,3.30
2017-12-01T20:50:47.918Z,3.30
2017-12-01T20:53:14.120Z,3.40
2017-12-01T20:55:40.186Z,3.50
2017-12-01T20:58:06.231Z,3.40
2017-12-01T21:00:32.302Z,3.20
2017-12-01T21:02:58.349Z,2.20
2017-12-01T21:05:25.432Z,3.30
2017-12-01T21:07:52.181Z,3.30
2017-12-01T21:10:18.229Z,3.40
2017-12-01T21:12:44.278Z,3.50
2017-12-01T21:15:10.554Z,3.40
2017-12-01T21:17:36.881Z,3.30
2017-12-01T21:20:03.139Z,3.00
2017-12-01T21:22:30.311Z,3.60
2017-12-01T21:24:57.344Z,3.70
2017-12-01T21:27:24.362Z,3.70
2017-12-01T21:29:50.721Z,3.70
2017-12-01T21:32:17.577Z,3.80
2017-12-01T21:34:43.626Z,3.80
2017-12-01T21:37:09.909Z,3.80
2017-12-01T21:39:37.115Z,3.90
2017-12-01T21:42:03.381Z,3.90
2017-12-01T21:44:30.408Z,3.70
2017-12-01T21:46:57.465Z,3.90
2017-12-01T21:52:24.310Z,4.20
2017-12-01T21:54:50.440Z,4.20
2017-12-01T21:57:16.467Z,4.40
2017-12-01T21:59:42.556Z,4.40
2017-12-01T22:02:08.613Z,3.80
2017-12-01T22:04:34.684Z,4.10
2017-12-01T22:07:00.895Z,4.20
2017-12-01T22:09:26.993Z,4.50
2017-12-01T22:11:53.378Z,4.20
2017-12-01T22:14:19.475Z,4.20
2017-12-01T22:16:46.273Z,4.20
2017-12-01T22:19:12.458Z,4.20
2017-12-01T22:21:39.419Z,4.10
2017-12-01T22:24:05.564Z,4.10
2017-12-01T22:26:31.690Z,4.10
2017-12-01T22:28:58.502Z,3.90
2017-12-01T22:31:24.573Z,3.90
2017-12-01T22:33:50.670Z,3.90
2017-12-01T22:36:17.482Z,3.50
2017-12-01T22:38:44.344Z,3.50
2017-12-01T22:41:11.164Z,3.60
2017-12-01T22:43:37.325Z,3.60
2017-12-01T22:46:03.505Z,3.60
2017-12-01T22:48:29.574Z,3.50
2017-12-01T22:50:55.737Z,3.40
2017-12-01T22:53:22.602Z,3.40
2017-12-01T22:55:49.402Z,3.30
2017-12-01T22:58:15.477Z,3.30
2017-12-01T23:00:41.549Z,3.30
2017-12-01T23:03:08.351Z,3.30
2017-12-01T23:05:34.554Z,3.30
2017-12-01T23:08:07.510Z,3.30
2017-12-01T23:10:34.476Z,3.20
2017-12-01T23:13:00.611Z,3.20
2017-12-01T23:15:26.646Z,3.20
2017-12-01T23:17:53.437Z,3.20
2017-12-01T23:20:19.509Z,3.20
2017-12-01T23:22:45.638Z,3.10
2017-12-01T23:25:12.066Z,3.10
2017-12-01T23:27:38.106Z,3.10
2017-12-01T23:30:04.247Z,3.10
2017-12-01T23:32:30.343Z,3.00
2017-12-01T23:34:56.436Z,3.00
2017-12-01T23:37:22.542Z,3.00
2017-12-01T23:39:48.686Z,3.00
2017-12-01T23:42:14.778Z,2.90
2017-12-01T23:44:42.882Z,3.00
2017-12-01T23:47:13.909Z,3.00
2017-12-01T23:49:41.074Z,3.00
2017-12-01T23:52:08.123Z,2.90
2017-12-01T23:54:37.528Z,3.00
2017-12-01T23:57:08.807Z,3.10
2017-12-01T23:59:35.081Z,2.80
